sensor_id;sensor_type;location;lat;lon;timestamp;pressure;altitude;pressure_sealevel;temperature;humidity
56825;BME280;42705;50.326;18.772;2023-07-20T00:02:15;97730.32;;;20.92;43.88
56825;BME280;42705;50.326;18.772;2023-07-20T00:07:37;97775.98;;;20.59;44.74
56825;BME280;42705;50.326;18.772;2023-07-20T00:12:58;97799.95;;;20.15;46.25
56825;BME280;42705;50.326;18.772;2023-07-20T00:18:20;97827.33;;;19.90;47.00
56825;BME280;42705;50.326;18.772;2023-07-20T00:23:42;97815.71;;;19.72;47.82
56825;BME280;42705;50.326;18.772;2023-07-20T00:29:04;97827.92;;;19.52;48.82
56825;BME280;42705;50.326;18.772;2023-07-20T00:34:26;97842.23;;;19.37;49.56
56825;BME280;42705;50.326;18.772;2023-07-20T00:39:50;97838.15;;;19.16;50.69
56825;BME280;42705;50.326;18.772;2023-07-20T00:45:14;97832.79;;;18.93;51.65
56825;BME280;42705;50.326;18.772;2023-07-20T00:50:36;97831.55;;;18.80;52.49
56825;BME280;42705;50.326;18.772;2023-07-20T00:55:58;97832.18;;;18.75;53.22
56825;BME280;42705;50.326;18.772;2023-07-20T01:01:22;97821.13;;;18.69;53.89
56825;BME280;42705;50.326;18.772;2023-07-20T01:06:49;97817.32;;;18.72;54.57
56825;BME280;42705;50.326;18.772;2023-07-20T01:12:33;97802.15;;;18.84;54.93
56825;BME280;42705;50.326;18.772;2023-07-20T01:17:57;97798.92;;;18.96;54.96
56825;BME280;42705;50.326;18.772;2023-07-20T01:34:28;97795.13;;;18.56;55.88
56825;BME280;42705;50.326;18.772;2023-07-20T01:39:52;97801.48;;;18.43;56.18
56825;BME280;42705;50.326;18.772;2023-07-20T01:45:17;97811.40;;;18.37;56.68
56825;BME280;42705;50.326;18.772;2023-07-20T01:50:39;97825.23;;;18.25;57.12
56825;BME280;42705;50.326;18.772;2023-07-20T01:56:01;97836.49;;;18.12;57.62
56825;BME280;42705;50.326;18.772;2023-07-20T02:01:24;97834.38;;;18.06;57.90
56825;BME280;42705;50.326;18.772;2023-07-20T02:06:46;97835.52;;;18.02;58.10
56825;BME280;42705;50.326;18.772;2023-07-20T02:12:08;97845.27;;;17.94;58.28
56825;BME280;42705;50.326;18.772;2023-07-20T02:17:30;97838.29;;;17.92;58.41
56825;BME280;42705;50.326;18.772;2023-07-20T02:22:52;97842.08;;;17.97;58.63
56825;BME280;42705;50.326;18.772;2023-07-20T02:28:14;97853.09;;;17.94;58.69
56825;BME280;42705;50.326;18.772;2023-07-20T02:33:36;97850.52;;;17.87;58.75
56825;BME280;42705;50.326;18.772;2023-07-20T02:38:59;97859.15;;;17.80;58.76
56825;BME280;42705;50.326;18.772;2023-07-20T02:44:21;97857.34;;;17.71;58.84
56825;BME280;42705;50.326;18.772;2023-07-20T02:49:42;97856.60;;;17.68;58.91
56825;BME280;42705;50.326;18.772;2023-07-20T02:55:05;97861.05;;;17.61;59.01
56825;BME280;42705;50.326;18.772;2023-07-20T03:00:28;97871.90;;;17.51;59.26
56825;BME280;42705;50.326;18.772;2023-07-20T03:05:50;97875.91;;;17.42;59.42
56825;BME280;42705;50.326;18.772;2023-07-20T03:11:16;97874.79;;;17.34;59.61
56825;BME280;42705;50.326;18.772;2023-07-20T03:16:38;97883.75;;;17.27;59.70
56825;BME280;42705;50.326;18.772;2023-07-20T03:22:00;97897.89;;;17.26;60.12
56825;BME280;42705;50.326;18.772;2023-07-20T03:27:22;97905.51;;;17.20;60.23
56825;BME280;42705;50.326;18.772;2023-07-20T03:32:44;97912.77;;;17.15;60.57
56825;BME280;42705;50.326;18.772;2023-07-20T03:38:06;97902.98;;;17.12;60.73
56825;BME280;42705;50.326;18.772;2023-07-20T03:43:28;97879.63;;;17.15;60.94
56825;BME280;42705;50.326;18.772;2023-07-20T03:48:50;97913.81;;;17.20;61.26
56825;BME280;42705;50.326;18.772;2023-07-20T03:54:12;97895.45;;;17.27;61.28
56825;BME280;42705;50.326;18.772;2023-07-20T03:59:33;97871.06;;;17.31;61.44
56825;BME280;42705;50.326;18.772;2023-07-20T04:04:55;97888.71;;;17.35;61.67
56825;BME280;42705;50.326;18.772;2023-07-20T04:10:18;97899.88;;;17.45;61.81
56825;BME280;42705;50.326;18.772;2023-07-20T04:15:42;97905.41;;;17.57;61.87
56825;BME280;42705;50.326;18.772;2023-07-20T04:21:03;97898.48;;;17.67;62.20
56825;BME280;42705;50.326;18.772;2023-07-20T04:26:26;97889.48;;;17.73;62.15
56825;BME280;42705;50.326;18.772;2023-07-20T04:31:48;97906.95;;;17.81;62.21
56825;BME280;42705;50.326;18.772;2023-07-20T04:37:10;97913.30;;;17.93;62.18
56825;BME280;42705;50.326;18.772;2023-07-20T04:42:32;97914.60;;;18.03;61.99
56825;BME280;42705;50.326;18.772;2023-07-20T04:47:54;97903.41;;;18.13;61.93
56825;BME280;42705;50.326;18.772;2023-07-20T04:53:16;97921.36;;;18.26;61.73
56825;BME280;42705;50.326;18.772;2023-07-20T04:58:38;97924.59;;;18.34;61.66
56825;BME280;42705;50.326;18.772;2023-07-20T05:04:01;97936.17;;;18.44;61.63
56825;BME280;42705;50.326;18.772;2023-07-20T05:09:23;97935.61;;;18.37;61.64
56825;BME280;42705;50.326;18.772;2023-07-20T05:14:45;97942.64;;;18.40;61.57
56825;BME280;42705;50.326;18.772;2023-07-20T05:20:07;97955.09;;;18.32;61.49
56825;BME280;42705;50.326;18.772;2023-07-20T05:25:31;97969.52;;;18.05;61.87
56825;BME280;42705;50.326;18.772;2023-07-20T05:30:54;97963.45;;;17.83;62.27
56825;BME280;42705;50.326;18.772;2023-07-20T05:36:25;97960.55;;;17.73;62.80
56825;BME280;42705;50.326;18.772;2023-07-20T05:41:48;97964.17;;;17.68;63.20
56825;BME280;42705;50.326;18.772;2023-07-20T05:47:10;97968.14;;;17.65;63.46
56825;BME280;42705;50.326;18.772;2023-07-20T05:52:32;97974.97;;;17.68;63.48
56825;BME280;42705;50.326;18.772;2023-07-20T05:57:54;97985.71;;;17.85;63.46
56825;BME280;42705;50.326;18.772;2023-07-20T06:03:17;97984.23;;;17.98;63.27
56825;BME280;42705;50.326;18.772;2023-07-20T06:08:39;97982.86;;;18.07;63.05
56825;BME280;42705;50.326;18.772;2023-07-20T06:14:01;97978.59;;;18.32;63.03
56825;BME280;42705;50.326;18.772;2023-07-20T06:19:23;97966.66;;;18.49;62.81
56825;BME280;42705;50.326;18.772;2023-07-20T06:24:45;97979.39;;;18.64;62.29
56825;BME280;42705;50.326;18.772;2023-07-20T06:30:07;97985.55;;;18.73;61.80
56825;BME280;42705;50.326;18.772;2023-07-20T06:35:29;97990.87;;;18.77;61.04
56825;BME280;42705;50.326;18.772;2023-07-20T06:40:52;97990.05;;;18.74;60.73
56825;BME280;42705;50.326;18.772;2023-07-20T06:46:14;97991.40;;;18.73;60.54
56825;BME280;42705;50.326;18.772;2023-07-20T06:51:36;97996.38;;;18.88;60.39
56825;BME280;42705;50.326;18.772;2023-07-20T06:56:58;98001.20;;;19.05;59.74
56825;BME280;42705;50.326;18.772;2023-07-20T07:02:20;97998.23;;;19.05;58.85
56825;BME280;42705;50.326;18.772;2023-07-20T07:07:42;98006.92;;;18.97;58.67
56825;BME280;42705;50.326;18.772;2023-07-20T07:13:04;98001.75;;;18.93;58.71
56825;BME280;42705;50.326;18.772;2023-07-20T07:18:25;97996.40;;;19.02;58.82
56825;BME280;42705;50.326;18.772;2023-07-20T07:23:48;98008.46;;;19.10;58.67
56825;BME280;42705;50.326;18.772;2023-07-20T07:29:11;98013.42;;;19.29;58.41
56825;BME280;42705;50.326;18.772;2023-07-20T07:34:33;98015.98;;;19.55;58.17
56825;BME280;42705;50.326;18.772;2023-07-20T07:39:56;98013.84;;;19.63;58.00
56825;BME280;42705;50.326;18.772;2023-07-20T07:45:18;98012.21;;;19.70;57.99
56825;BME280;42705;50.326;18.772;2023-07-20T07:50:40;98011.75;;;19.84;57.93
56825;BME280;42705;50.326;18.772;2023-07-20T07:56:02;98008.30;;;20.03;57.83
56825;BME280;42705;50.326;18.772;2023-07-20T08:01:24;98014.97;;;20.25;57.45
56825;BME280;42705;50.326;18.772;2023-07-20T08:06:46;98021.70;;;20.26;57.08
56825;BME280;42705;50.326;18.772;2023-07-20T08:12:08;98021.52;;;20.24;56.90
56825;BME280;42705;50.326;18.772;2023-07-20T08:17:30;98019.34;;;20.12;56.59
56825;BME280;42705;50.326;18.772;2023-07-20T08:22:55;98021.20;;;19.99;56.89
56825;BME280;42705;50.326;18.772;2023-07-20T08:28:17;98017.63;;;19.93;56.86
56825;BME280;42705;50.326;18.772;2023-07-20T08:33:39;98014.17;;;19.99;57.12
56825;BME280;42705;50.326;18.772;2023-07-20T08:39:01;98021.45;;;20.13;57.15
56825;BME280;42705;50.326;18.772;2023-07-20T08:44:25;98018.30;;;20.35;56.52
56825;BME280;42705;50.326;18.772;2023-07-20T08:49:50;98027.45;;;20.57;56.31
56825;BME280;42705;50.326;18.772;2023-07-20T08:55:12;98024.02;;;20.70;55.82
56825;BME280;42705;50.326;18.772;2023-07-20T09:00:34;98026.14;;;20.85;55.55
56825;BME280;42705;50.326;18.772;2023-07-20T09:05:57;98025.52;;;21.05;55.05
56825;BME280;42705;50.326;18.772;2023-07-20T09:11:20;98028.89;;;21.08;54.19
56825;BME280;42705;50.326;18.772;2023-07-20T09:16:48;98040.91;;;20.91;54.30
56825;BME280;42705;50.326;18.772;2023-07-20T09:22:11;98043.13;;;20.76;54.45
56825;BME280;42705;50.326;18.772;2023-07-20T09:27:37;98046.63;;;20.84;54.70
56825;BME280;42705;50.326;18.772;2023-07-20T09:32:59;98037.77;;;20.96;54.61
56825;BME280;42705;50.326;18.772;2023-07-20T09:38:21;98042.26;;;21.10;54.27
56825;BME280;42705;50.326;18.772;2023-07-20T09:43:45;98038.66;;;21.12;54.01
56825;BME280;42705;50.326;18.772;2023-07-20T09:49:08;98039.03;;;21.19;54.06
56825;BME280;42705;50.326;18.772;2023-07-20T09:54:31;98034.05;;;21.34;53.82
56825;BME280;42705;50.326;18.772;2023-07-20T09:59:54;98036.95;;;21.53;53.05
56825;BME280;42705;50.326;18.772;2023-07-20T10:05:16;98037.44;;;21.78;52.37
56825;BME280;42705;50.326;18.772;2023-07-20T10:10:41;98033.25;;;21.91;52.07
56825;BME280;42705;50.326;18.772;2023-07-20T10:16:11;98029.55;;;22.06;52.09
56825;BME280;42705;50.326;18.772;2023-07-20T10:21:40;98033.06;;;22.22;51.75
56825;BME280;42705;50.326;18.772;2023-07-20T10:27:04;98025.99;;;22.35;50.99
56825;BME280;42705;50.326;18.772;2023-07-20T10:32:27;98019.75;;;22.41;50.37
56825;BME280;42705;50.326;18.772;2023-07-20T10:38:00;98016.20;;;22.46;49.98
56825;BME280;42705;50.326;18.772;2023-07-20T10:43:22;98010.52;;;22.57;49.18
56825;BME280;42705;50.326;18.772;2023-07-20T10:49:00;98008.21;;;22.65;48.31
56825;BME280;42705;50.326;18.772;2023-07-20T10:59:46;98012.88;;;22.87;47.00
56825;BME280;42705;50.326;18.772;2023-07-20T11:05:32;98009.86;;;23.09;46.38
56825;BME280;42705;50.326;18.772;2023-07-20T11:11:21;98004.56;;;23.39;45.77
56825;BME280;42705;50.326;18.772;2023-07-20T11:16:47;98000.98;;;23.67;45.26
56825;BME280;42705;50.326;18.772;2023-07-20T11:22:10;98000.68;;;23.85;45.48
56825;BME280;42705;50.326;18.772;2023-07-20T11:27:32;98009.09;;;23.80;45.33
56825;BME280;42705;50.326;18.772;2023-07-20T11:32:54;98008.98;;;23.83;45.01
56825;BME280;42705;50.326;18.772;2023-07-20T11:38:17;98008.66;;;23.88;44.90
56825;BME280;42705;50.326;18.772;2023-07-20T11:43:39;98002.02;;;23.99;44.44
56825;BME280;42705;50.326;18.772;2023-07-20T11:49:02;97994.08;;;24.11;43.92
56825;BME280;42705;50.326;18.772;2023-07-20T11:54:24;97988.84;;;24.23;43.69
56825;BME280;42705;50.326;18.772;2023-07-20T11:59:57;97979.17;;;24.34;43.52
56825;BME280;42705;50.326;18.772;2023-07-20T12:05:22;97992.19;;;24.50;43.00
56825;BME280;42705;50.326;18.772;2023-07-20T12:10:44;97983.85;;;24.54;41.86
56825;BME280;42705;50.326;18.772;2023-07-20T12:16:10;97972.84;;;24.62;41.55
56825;BME280;42705;50.326;18.772;2023-07-20T12:21:35;97973.30;;;24.65;41.25
56825;BME280;42705;50.326;18.772;2023-07-20T12:26:58;97970.19;;;24.67;40.81
56825;BME280;42705;50.326;18.772;2023-07-20T12:32:20;97957.39;;;24.81;40.66
56825;BME280;42705;50.326;18.772;2023-07-20T12:37:42;97961.59;;;25.07;40.56
56825;BME280;42705;50.326;18.772;2023-07-20T12:43:04;97957.95;;;25.21;40.24
56825;BME280;42705;50.326;18.772;2023-07-20T12:48:26;97963.66;;;25.50;39.69
56825;BME280;42705;50.326;18.772;2023-07-20T12:53:48;97965.10;;;25.72;39.42
56825;BME280;42705;50.326;18.772;2023-07-20T12:59:11;97955.04;;;25.95;38.90
56825;BME280;42705;50.326;18.772;2023-07-20T13:04:32;97959.79;;;26.18;38.77
56825;BME280;42705;50.326;18.772;2023-07-20T13:09:54;97951.41;;;26.48;38.43
56825;BME280;42705;50.326;18.772;2023-07-20T13:15:17;97950.59;;;26.84;37.90
56825;BME280;42705;50.326;18.772;2023-07-20T13:20:39;97943.96;;;27.38;37.22
56825;BME280;42705;50.326;18.772;2023-07-20T13:26:00;97946.39;;;28.08;36.20
56825;BME280;42705;50.326;18.772;2023-07-20T13:31:22;97948.65;;;28.26;35.14
56825;BME280;42705;50.326;18.772;2023-07-20T13:36:44;97934.36;;;28.32;34.54
56825;BME280;42705;50.326;18.772;2023-07-20T13:42:07;97938.73;;;27.62;35.00
56825;BME280;42705;50.326;18.772;2023-07-20T13:47:30;97943.31;;;26.87;35.52
56825;BME280;42705;50.326;18.772;2023-07-20T13:52:52;97951.98;;;26.23;36.00
56825;BME280;42705;50.326;18.772;2023-07-20T13:58:14;97977.40;;;25.57;36.32
56825;BME280;42705;50.326;18.772;2023-07-20T14:03:36;97990.77;;;24.99;36.94
56825;BME280;42705;50.326;18.772;2023-07-20T14:08:59;97969.16;;;24.70;37.45
56825;BME280;42705;50.326;18.772;2023-07-20T14:14:22;97945.39;;;26.68;35.90
56825;BME280;42705;50.326;18.772;2023-07-20T14:19:44;97951.48;;;31.21;32.96
56825;BME280;42705;50.326;18.772;2023-07-20T14:25:06;97958.67;;;34.88;29.68
56825;BME280;42705;50.326;18.772;2023-07-20T14:30:28;97950.21;;;35.30;27.50
56825;BME280;42705;50.326;18.772;2023-07-20T14:35:50;97948.55;;;36.29;25.63
56825;BME280;42705;50.326;18.772;2023-07-20T14:41:12;97959.08;;;36.21;24.92
56825;BME280;42705;50.326;18.772;2023-07-20T14:46:33;97951.59;;;37.18;24.07
56825;BME280;42705;50.326;18.772;2023-07-20T14:51:55;97961.54;;;38.16;22.19
56825;BME280;42705;50.326;18.772;2023-07-20T14:57:17;97964.83;;;38.70;20.99
56825;BME280;42705;50.326;18.772;2023-07-20T15:02:40;97961.41;;;37.92;20.80
56825;BME280;42705;50.326;18.772;2023-07-20T15:08:03;97966.53;;;36.07;21.39
56825;BME280;42705;50.326;18.772;2023-07-20T15:13:25;97974.10;;;34.01;22.50
56825;BME280;42705;50.326;18.772;2023-07-20T15:18:47;97974.30;;;34.34;23.06
56825;BME280;42705;50.326;18.772;2023-07-20T15:24:09;97992.48;;;35.09;23.82
56825;BME280;42705;50.326;18.772;2023-07-20T15:29:31;97987.86;;;35.24;23.70
56825;BME280;42705;50.326;18.772;2023-07-20T15:34:53;97988.46;;;34.81;24.23
56825;BME280;42705;50.326;18.772;2023-07-20T15:40:15;97988.17;;;35.16;24.29
56825;BME280;42705;50.326;18.772;2023-07-20T15:45:37;97992.00;;;35.88;24.27
56825;BME280;42705;50.326;18.772;2023-07-20T15:50:59;97989.74;;;35.63;24.42
56825;BME280;42705;50.326;18.772;2023-07-20T15:56:21;97990.98;;;34.08;25.19
56825;BME280;42705;50.326;18.772;2023-07-20T16:01:43;97988.59;;;33.56;25.69
56825;BME280;42705;50.326;18.772;2023-07-20T16:07:05;97985.80;;;34.14;25.59
56825;BME280;42705;50.326;18.772;2023-07-20T16:12:28;97988.27;;;34.74;25.03
56825;BME280;42705;50.326;18.772;2023-07-20T16:17:53;97994.51;;;35.02;24.65
56825;BME280;42705;50.326;18.772;2023-07-20T16:23:14;97996.99;;;35.02;24.68
56825;BME280;42705;50.326;18.772;2023-07-20T16:28:37;98000.91;;;35.03;24.27
56825;BME280;42705;50.326;18.772;2023-07-20T16:33:59;97999.36;;;34.51;24.35
56825;BME280;42705;50.326;18.772;2023-07-20T16:39:21;97997.27;;;34.47;24.52
56825;BME280;42705;50.326;18.772;2023-07-20T16:44:42;97999.78;;;34.11;24.23
56825;BME280;42705;50.326;18.772;2023-07-20T16:50:07;98008.46;;;32.94;24.68
56825;BME280;42705;50.326;18.772;2023-07-20T16:55:31;98011.93;;;31.95;25.68
56825;BME280;42705;50.326;18.772;2023-07-20T17:01:11;98018.06;;;31.21;26.20
56825;BME280;42705;50.326;18.772;2023-07-20T17:06:32;98018.30;;;30.26;27.19
56825;BME280;42705;50.326;18.772;2023-07-20T17:11:54;98020.80;;;29.65;28.02
56825;BME280;42705;50.326;18.772;2023-07-20T17:17:16;98022.39;;;28.69;28.70
56825;BME280;42705;50.326;18.772;2023-07-20T17:22:38;98022.87;;;28.38;29.55
56825;BME280;42705;50.326;18.772;2023-07-20T17:28:00;98025.39;;;28.35;29.91
56825;BME280;42705;50.326;18.772;2023-07-20T17:33:22;98029.01;;;27.97;30.29
56825;BME280;42705;50.326;18.772;2023-07-20T17:38:44;98032.61;;;27.84;30.67
56825;BME280;42705;50.326;18.772;2023-07-20T17:44:06;98035.15;;;28.01;30.88
56825;BME280;42705;50.326;18.772;2023-07-20T17:49:28;98042.16;;;28.10;31.01
56825;BME280;42705;50.326;18.772;2023-07-20T17:54:50;98046.56;;;28.14;31.05
56825;BME280;42705;50.326;18.772;2023-07-20T18:00:12;98043.23;;;27.90;31.19
56825;BME280;42705;50.326;18.772;2023-07-20T18:05:36;98046.73;;;27.64;31.78
56825;BME280;42705;50.326;18.772;2023-07-20T18:11:05;98047.34;;;27.33;32.25
56825;BME280;42705;50.326;18.772;2023-07-20T18:16:27;98047.98;;;26.80;32.87
56825;BME280;42705;50.326;18.772;2023-07-20T18:21:49;98051.08;;;26.37;33.42
56825;BME280;42705;50.326;18.772;2023-07-20T18:27:12;98052.99;;;25.84;34.05
56825;BME280;42705;50.326;18.772;2023-07-20T18:32:34;98058.04;;;25.29;34.76
56825;BME280;42705;50.326;18.772;2023-07-20T18:37:56;98061.06;;;24.76;35.76
56825;BME280;42705;50.326;18.772;2023-07-20T18:43:17;98063.95;;;24.28;36.57
56825;BME280;42705;50.326;18.772;2023-07-20T18:48:40;98064.95;;;23.87;37.37
56825;BME280;42705;50.326;18.772;2023-07-20T18:54:01;98069.95;;;23.58;37.99
56825;BME280;42705;50.326;18.772;2023-07-20T18:59:23;98074.05;;;23.28;38.54
56825;BME280;42705;50.326;18.772;2023-07-20T19:04:45;98081.04;;;22.96;39.11
56825;BME280;42705;50.326;18.772;2023-07-20T19:10:08;98080.66;;;22.70;39.71
56825;BME280;42705;50.326;18.772;2023-07-20T19:15:32;98093.89;;;22.53;40.18
56825;BME280;42705;50.326;18.772;2023-07-20T19:20:54;98100.27;;;22.37;40.66
56825;BME280;42705;50.326;18.772;2023-07-20T19:26:16;98101.86;;;22.17;41.06
56825;BME280;42705;50.326;18.772;2023-07-20T19:31:38;98100.87;;;22.04;41.61
56825;BME280;42705;50.326;18.772;2023-07-20T19:37:00;98100.66;;;21.97;42.14
56825;BME280;42705;50.326;18.772;2023-07-20T19:42:22;98106.64;;;21.87;42.22
56825;BME280;42705;50.326;18.772;2023-07-20T19:47:45;98111.06;;;21.76;42.49
56825;BME280;42705;50.326;18.772;2023-07-20T19:53:07;98114.06;;;21.68;42.81
56825;BME280;42705;50.326;18.772;2023-07-20T19:58:29;98120.73;;;21.58;43.23
56825;BME280;42705;50.326;18.772;2023-07-20T20:03:51;98124.46;;;21.44;43.55
56825;BME280;42705;50.326;18.772;2023-07-20T20:09:15;98125.02;;;21.25;43.89
56825;BME280;42705;50.326;18.772;2023-07-20T20:14:38;98123.63;;;21.11;44.41
56825;BME280;42705;50.326;18.772;2023-07-20T20:20:00;98124.71;;;20.97;44.66
56825;BME280;42705;50.326;18.772;2023-07-20T20:25:22;98129.20;;;20.87;45.07
56825;BME280;42705;50.326;18.772;2023-07-20T20:30:49;98132.91;;;20.80;45.37
56825;BME280;42705;50.326;18.772;2023-07-20T20:36:12;98128.23;;;20.74;45.93
56825;BME280;42705;50.326;18.772;2023-07-20T20:41:36;98135.95;;;20.66;46.04
56825;BME280;42705;50.326;18.772;2023-07-20T20:47:06;98134.16;;;20.51;46.55
56825;BME280;42705;50.326;18.772;2023-07-20T20:52:29;98132.64;;;20.45;47.08
56825;BME280;42705;50.326;18.772;2023-07-20T20:57:51;98139.96;;;20.46;47.47
56825;BME280;42705;50.326;18.772;2023-07-20T21:03:16;98136.45;;;20.43;47.77
56825;BME280;42705;50.326;18.772;2023-07-20T21:08:38;98137.96;;;20.41;48.00
56825;BME280;42705;50.326;18.772;2023-07-20T21:13:59;98144.66;;;20.38;48.14
56825;BME280;42705;50.326;18.772;2023-07-20T21:19:21;98142.13;;;20.37;48.56
56825;BME280;42705;50.326;18.772;2023-07-20T21:24:43;98138.20;;;20.35;48.68
56825;BME280;42705;50.326;18.772;2023-07-20T21:30:06;98143.39;;;20.36;49.03
56825;BME280;42705;50.326;18.772;2023-07-20T21:35:28;98142.19;;;20.31;49.29
56825;BME280;42705;50.326;18.772;2023-07-20T21:40:50;98147.33;;;20.23;49.64
56825;BME280;42705;50.326;18.772;2023-07-20T21:46:12;98154.48;;;20.12;50.06
56825;BME280;42705;50.326;18.772;2023-07-20T21:51:33;98157.10;;;19.95;50.60
56825;BME280;42705;50.326;18.772;2023-07-20T21:56:55;98154.95;;;19.89;51.15
56825;BME280;42705;50.326;18.772;2023-07-20T22:02:17;98159.70;;;19.77;51.60
56825;BME280;42705;50.326;18.772;2023-07-20T22:07:40;98160.31;;;19.60;52.02
56825;BME280;42705;50.326;18.772;2023-07-20T22:13:03;98165.15;;;19.34;52.66
56825;BME280;42705;50.326;18.772;2023-07-20T22:18:25;98165.60;;;19.23;53.18
56825;BME280;42705;50.326;18.772;2023-07-20T22:23:47;98163.34;;;19.15;53.64
56825;BME280;42705;50.326;18.772;2023-07-20T22:29:09;98160.94;;;18.99;54.03
56825;BME280;42705;50.326;18.772;2023-07-20T22:34:31;98164.04;;;18.86;54.47
56825;BME280;42705;50.326;18.772;2023-07-20T22:39:56;98161.15;;;18.75;54.56
56825;BME280;42705;50.326;18.772;2023-07-20T22:45:18;98158.15;;;18.65;54.82
56825;BME280;42705;50.326;18.772;2023-07-20T22:50:41;98157.23;;;18.58;55.20
56825;BME280;42705;50.326;18.772;2023-07-20T22:56:03;98158.43;;;18.55;55.48
56825;BME280;42705;50.326;18.772;2023-07-20T23:01:25;98160.34;;;18.51;55.76
56825;BME280;42705;50.326;18.772;2023-07-20T23:06:48;98158.48;;;18.48;56.01
56825;BME280;42705;50.326;18.772;2023-07-20T23:12:10;98151.48;;;18.50;56.18
56825;BME280;42705;50.326;18.772;2023-07-20T23:17:32;98149.73;;;18.48;56.21
56825;BME280;42705;50.326;18.772;2023-07-20T23:22:55;98152.27;;;18.42;56.52
56825;BME280;42705;50.326;18.772;2023-07-20T23:28:17;98153.02;;;18.31;56.50
56825;BME280;42705;50.326;18.772;2023-07-20T23:33:39;98154.56;;;18.14;56.50
56825;BME280;42705;50.326;18.772;2023-07-20T23:39:01;98156.23;;;18.00;56.66
56825;BME280;42705;50.326;18.772;2023-07-20T23:44:23;98155.23;;;17.92;56.97
56825;BME280;42705;50.326;18.772;2023-07-20T23:49:45;98153.69;;;17.89;57.25
56825;BME280;42705;50.326;18.772;2023-07-20T23:55:08;98152.69;;;17.97;57.36
